createdAt,value
2019-01-06T20:16:25.992Z,96.30
2019-01-06T20:18:57.498Z,96.40
2019-01-06T20:21:30.753Z,96.30
2019-01-06T20:24:10.194Z,96.40
2019-01-06T20:26:41.356Z,96.40
2019-01-06T20:32:37.687Z,96.50
2019-01-06T20:35:17.235Z,96.40
2019-01-06T20:37:50.377Z,96.50
2019-01-06T20:43:42.369Z,96.50
2019-01-06T20:46:15.378Z,96.60
2019-01-06T20:48:55.638Z,96.60
2019-01-06T20:54:37.441Z,96.70
2019-01-06T20:57:10.677Z,96.80
2019-01-06T20:59:43.877Z,96.90
2019-01-06T21:02:13.895Z,96.90
2019-01-06T21:04:43.915Z,97.00
2019-01-06T21:07:13.446Z,97.10
2019-01-06T21:09:45.580Z,97.10
2019-01-06T21:12:15.127Z,97.20
2019-01-06T21:17:54.730Z,97.30
2019-01-06T21:32:55.108Z,97.80
2019-01-06T21:35:41.486Z,98.10
2019-01-06T21:38:14.621Z,97.80
2019-01-06T21:40:44.955Z,97.80
2019-01-06T21:43:25.362Z,97.80
2019-01-06T21:45:57.427Z,97.80
2019-01-06T21:48:27.886Z,97.90
2019-01-06T21:51:01.089Z,97.90
2019-01-06T21:53:34.138Z,98.00
2019-01-06T21:59:19.183Z,98.10
2019-01-06T22:04:58.202Z,98.30
2019-01-06T22:07:33.402Z,98.40
2019-01-06T22:13:21.527Z,98.50
2019-01-06T22:15:54.982Z,98.60
2019-01-06T22:18:25.308Z,98.60
2019-01-06T22:20:54.832Z,98.70
2019-01-06T22:23:28.200Z,98.70
2019-01-06T22:25:57.715Z,98.80
2019-01-06T22:28:28.851Z,98.90
2019-01-06T22:31:02.115Z,98.90
2019-01-06T22:33:35.249Z,98.90
2019-01-06T22:39:33.950Z,99.00
2019-01-06T22:42:04.269Z,99.00
2019-01-06T22:44:34.295Z,99.00
2019-01-06T22:47:06.705Z,99.00
2019-01-06T22:52:46.304Z,99.10
2019-01-06T22:55:21.328Z,99.10
2019-01-06T22:57:54.576Z,99.10
2019-01-06T23:00:29.861Z,99.20
2019-01-06T23:06:49.990Z,99.50
2019-01-06T23:09:35.942Z,99.60
2019-01-06T23:12:22.426Z,99.60
2019-01-06T23:15:08.706Z,99.40
2019-01-06T23:17:38.723Z,99.40
2019-01-06T23:20:25.111Z,99.40
2019-01-06T23:22:57.797Z,99.30
2019-01-06T23:25:27.826Z,99.30
2019-01-06T23:28:14.246Z,99.20
2019-01-06T23:30:53.131Z,99.20
2019-01-06T23:33:39.358Z,99.20
2019-01-06T23:36:15.430Z,99.20
2019-01-06T23:39:01.743Z,99.20
2019-01-06T23:41:40.831Z,99.40
2019-01-06T23:44:27.393Z,99.40
2019-01-06T23:46:57.426Z,99.60
2019-01-06T23:49:36.398Z,99.80
2019-01-06T23:52:18.615Z,99.90
2019-01-06T23:55:04.859Z,99.90
2019-01-06T23:57:34.898Z,99.90
